createdAt,value
2023-02-11T00:01:25.078Z,68.03
2023-02-11T00:03:53.615Z,68.11
2023-02-11T00:06:25.008Z,68.57
2023-02-11T00:08:53.022Z,68.87
2023-02-11T00:11:22.688Z,69.25
2023-02-11T00:13:50.720Z,69.27
2023-02-11T00:16:21.397Z,69.27
2023-02-11T00:18:50.521Z,69.67
2023-02-11T00:21:21.347Z,69.84
2023-02-11T00:23:49.620Z,70.25
2023-02-11T00:26:25.443Z,70.13
2023-02-11T00:28:53.654Z,69.60
2023-02-11T00:31:23.399Z,69.56
2023-02-11T00:33:51.778Z,69.73
2023-02-11T00:36:26.203Z,70.36
2023-02-11T00:38:56.066Z,70.21
2023-02-11T00:41:24.547Z,70.37
2023-02-11T00:43:52.673Z,69.74
2023-02-11T00:46:21.995Z,69.92
2023-02-11T00:48:51.929Z,70.47
2023-02-11T00:51:22.448Z,70.03
2023-02-11T00:53:50.699Z,69.17
2023-02-11T00:56:19.008Z,68.94
2023-02-11T00:58:47.156Z,69.87
2023-02-11T01:01:15.304Z,70.57
2023-02-11T01:03:44.474Z,69.97
2023-02-11T01:06:12.760Z,70.07
2023-02-11T01:08:40.959Z,70.11
2023-02-11T01:11:16.688Z,69.52
2023-02-11T01:13:47.817Z,69.25
2023-02-11T01:16:18.740Z,69.71
2023-02-11T01:18:47.405Z,69.93
2023-02-11T01:21:16.319Z,69.94
2023-02-11T01:23:44.544Z,69.96
2023-02-11T01:26:13.831Z,69.72
2023-02-11T01:28:41.935Z,69.57
2023-02-11T01:31:10.284Z,69.56
2023-02-11T01:33:38.647Z,69.11
2023-02-11T01:36:08.586Z,69.30
2023-02-11T01:38:37.001Z,69.64
2023-02-11T01:41:11.963Z,69.52
2023-02-11T01:43:46.311Z,69.41
2023-02-11T01:46:31.709Z,69.80
2023-02-11T01:49:18.655Z,69.83
2023-02-11T01:52:06.495Z,70.11
2023-02-11T01:54:57.069Z,69.61
2023-02-11T01:57:29.548Z,69.22
2023-02-11T02:00:21.079Z,69.91
2023-02-11T02:03:22.726Z,70.36
2023-02-11T02:06:15.451Z,70.15
2023-02-11T02:08:50.425Z,70.31
2023-02-11T02:11:18.687Z,70.25
2023-02-11T02:13:47.068Z,70.08
2023-02-11T02:16:18.021Z,70.34
2023-02-11T02:19:14.190Z,70.58
2023-02-11T02:22:07.996Z,70.81
2023-02-11T02:24:42.043Z,70.59
2023-02-11T02:27:20.123Z,70.17
2023-02-11T02:29:54.317Z,70.31
2023-02-11T02:32:22.343Z,70.33
2023-02-11T02:34:58.381Z,70.63
2023-02-11T02:38:00.179Z,70.32
2023-02-11T02:40:45.030Z,69.69
2023-02-11T02:43:15.444Z,69.40
2023-02-11T02:45:43.418Z,70.12
2023-02-11T02:48:44.827Z,70.01
2023-02-11T02:51:42.428Z,70.24
2023-02-11T02:54:29.580Z,70.39
2023-02-11T02:57:06.672Z,70.81
2023-02-11T02:59:50.051Z,70.98
2023-02-11T03:02:35.105Z,70.59
2023-02-11T03:05:32.555Z,70.93
2023-02-11T03:08:12.379Z,71.46
2023-02-11T03:10:51.381Z,71.53
2023-02-11T03:13:25.378Z,71.30
2023-02-11T03:15:57.452Z,70.89
2023-02-11T03:18:28.971Z,70.69
2023-02-11T03:20:57.712Z,70.99
2023-02-11T03:23:35.467Z,70.45
2023-02-11T03:26:12.513Z,69.60
2023-02-11T03:29:03.854Z,69.80
2023-02-11T03:31:42.386Z,69.66
2023-02-11T03:34:16.831Z,70.26
2023-02-11T03:36:49.816Z,70.12
2023-02-11T03:39:38.017Z,70.33
2023-02-11T03:42:09.476Z,70.33
2023-02-11T03:44:50.066Z,70.29
2023-02-11T03:47:23.629Z,70.55
2023-02-11T03:49:54.782Z,70.75
2023-02-11T03:52:24.892Z,70.90
2023-02-11T03:54:57.204Z,69.95
2023-02-11T03:57:25.207Z,70.37
2023-02-11T03:59:58.836Z,70.27
2023-02-11T04:02:33.863Z,69.97
2023-02-11T04:05:02.373Z,70.70
2023-02-11T04:07:30.832Z,71.21
2023-02-11T04:09:58.850Z,71.34
2023-02-11T04:12:26.989Z,70.75
2023-02-11T04:14:55.106Z,70.54
2023-02-11T04:17:23.450Z,70.80
2023-02-11T04:19:51.415Z,70.50
2023-02-11T04:22:19.514Z,70.81
2023-02-11T04:24:47.653Z,70.43
2023-02-11T04:27:15.992Z,70.19
2023-02-11T04:29:44.275Z,69.99
2023-02-11T04:32:12.548Z,70.68
2023-02-11T04:34:40.721Z,70.67
2023-02-11T04:37:08.941Z,71.17
2023-02-11T04:39:37.003Z,70.49
2023-02-11T04:42:05.448Z,70.54
2023-02-11T04:44:33.917Z,70.21
2023-02-11T04:47:02.250Z,70.75
2023-02-11T04:49:30.929Z,70.72
2023-02-11T04:51:59.061Z,71.02
2023-02-11T04:54:27.641Z,70.87
2023-02-11T04:56:55.751Z,70.85
2023-02-11T04:59:24.808Z,71.17
2023-02-11T05:01:52.897Z,71.48
2023-02-11T05:04:20.978Z,71.23
2023-02-11T05:06:49.245Z,70.82
2023-02-11T05:09:17.829Z,70.52
2023-02-11T05:11:45.792Z,71.37
2023-02-11T05:14:13.802Z,71.99
2023-02-11T05:16:41.945Z,72.13
2023-02-11T05:19:10.406Z,72.11
2023-02-11T05:21:38.576Z,71.78
2023-02-11T05:24:07.461Z,71.56
2023-02-11T05:26:35.658Z,70.66
2023-02-11T05:29:03.761Z,70.82
2023-02-11T05:31:33.002Z,71.28
2023-02-11T05:34:04.022Z,70.94
2023-02-11T05:36:33.484Z,71.05
2023-02-11T05:39:01.720Z,71.09
2023-02-11T05:41:30.007Z,71.06
2023-02-11T05:43:58.303Z,70.04
2023-02-11T05:46:26.450Z,70.14
2023-02-11T05:48:56.666Z,70.40
2023-02-11T05:51:25.461Z,70.67
2023-02-11T05:53:53.801Z,70.75
2023-02-11T05:56:21.843Z,71.43
2023-02-11T05:58:50.066Z,71.10
2023-02-11T06:01:19.062Z,70.69
2023-02-11T06:03:47.422Z,71.07
2023-02-11T06:06:15.934Z,70.77
2023-02-11T06:08:44.098Z,70.87
2023-02-11T06:11:15.488Z,70.39
2023-02-11T06:13:44.032Z,70.01
2023-02-11T06:16:12.353Z,70.48
2023-02-11T06:18:40.579Z,70.93
2023-02-11T06:21:10.725Z,71.70
2023-02-11T06:23:38.789Z,71.49
2023-02-11T06:26:09.141Z,71.15
2023-02-11T06:28:39.382Z,70.81
2023-02-11T06:31:11.956Z,71.59
2023-02-11T06:33:40.362Z,71.94
2023-02-11T06:36:22.795Z,71.08
2023-02-11T06:38:51.260Z,71.56
2023-02-11T06:41:20.419Z,71.98
2023-02-11T06:43:49.286Z,72.36
2023-02-11T06:46:17.617Z,72.00
2023-02-11T06:48:46.004Z,71.41
2023-02-11T06:51:15.316Z,71.45
2023-02-11T06:53:45.918Z,71.08
2023-02-11T06:56:21.958Z,70.98
2023-02-11T06:58:54.879Z,69.98
2023-02-11T07:01:24.508Z,69.93
2023-02-11T07:03:53.701Z,69.24
2023-02-11T07:06:24.816Z,68.57
2023-02-11T07:08:53.214Z,68.76
2023-02-11T07:11:25.033Z,68.76
2023-02-11T07:13:55.398Z,69.24
2023-02-11T07:16:23.816Z,69.11
2023-02-11T07:18:52.164Z,69.06
2023-02-11T07:21:22.673Z,68.36
2023-02-11T07:23:51.879Z,67.61
2023-02-11T07:26:29.364Z,67.47
2023-02-11T07:28:57.680Z,66.03
2023-02-11T07:31:29.034Z,64.82
2023-02-11T07:34:00.092Z,64.38
2023-02-11T07:36:30.596Z,65.00
2023-02-11T07:38:59.083Z,63.68
2023-02-11T07:41:27.881Z,63.26
2023-02-11T07:43:56.724Z,62.27
2023-02-11T07:46:27.119Z,61.74
2023-02-11T07:48:56.133Z,60.79
2023-02-11T07:51:27.065Z,60.64
2023-02-11T07:53:56.698Z,60.67
2023-02-11T07:56:24.864Z,60.70
2023-02-11T07:58:53.644Z,61.29
2023-02-11T08:01:25.439Z,60.75
2023-02-11T08:03:54.793Z,60.14
2023-02-11T08:06:24.923Z,60.48
2023-02-11T08:08:53.252Z,59.76
2023-02-11T08:11:24.521Z,58.99
2023-02-11T08:13:53.819Z,59.16
2023-02-11T08:16:31.342Z,58.68
2023-02-11T08:19:02.296Z,58.35
2023-02-11T08:21:30.756Z,58.40
2023-02-11T08:23:59.429Z,56.31
2023-02-11T08:26:29.682Z,55.18
2023-02-11T08:28:58.954Z,55.20
2023-02-11T08:31:34.260Z,54.85
2023-02-11T08:34:02.788Z,55.14
2023-02-11T08:36:34.390Z,54.08
2023-02-11T08:39:18.053Z,53.82
2023-02-11T08:41:50.471Z,53.84
2023-02-11T08:44:20.138Z,54.24
2023-02-11T08:46:49.107Z,54.13
2023-02-11T08:49:17.329Z,53.76
2023-02-11T08:51:46.612Z,51.70
2023-02-11T08:54:15.215Z,51.05
2023-02-11T08:56:43.467Z,51.42
2023-02-11T08:59:14.758Z,51.56
2023-02-11T09:01:44.667Z,51.17
2023-02-11T09:04:13.626Z,49.65
2023-02-11T09:06:42.209Z,49.48
2023-02-11T09:09:15.220Z,50.15
2023-02-11T09:11:44.873Z,51.02
2023-02-11T09:14:22.340Z,51.80
2023-02-11T09:16:51.865Z,51.61
2023-02-11T09:19:21.413Z,52.00
2023-02-11T09:21:49.883Z,51.69
2023-02-11T09:24:18.672Z,51.01
2023-02-11T09:26:46.865Z,51.22
2023-02-11T09:29:15.021Z,52.08
2023-02-11T09:31:43.281Z,51.59
2023-02-11T09:34:12.093Z,51.17
2023-02-11T09:36:41.393Z,50.61
2023-02-11T09:39:14.466Z,50.88
2023-02-11T09:41:51.816Z,51.45
2023-02-11T09:44:25.613Z,50.72
2023-02-11T09:47:01.867Z,49.85
2023-02-11T09:49:44.648Z,48.56
2023-02-11T09:52:19.071Z,48.68
2023-02-11T09:54:56.908Z,48.68
2023-02-11T09:57:36.511Z,48.55
2023-02-11T10:00:24.850Z,48.88
2023-02-11T10:02:57.746Z,47.59
2023-02-11T10:06:19.778Z,47.20
2023-02-11T10:09:09.687Z,48.01
2023-02-11T10:11:48.089Z,48.19
2023-02-11T10:14:16.088Z,48.22
2023-02-11T10:16:54.715Z,47.58
2023-02-11T10:19:47.429Z,47.14
2023-02-11T10:22:34.079Z,46.84
2023-02-11T10:25:17.836Z,46.08
2023-02-11T10:27:46.416Z,45.92
2023-02-11T10:30:38.001Z,45.44
2023-02-11T10:33:50.996Z,45.31
2023-02-11T10:36:28.523Z,43.97
2023-02-11T10:39:00.004Z,43.05
2023-02-11T10:41:34.490Z,44.37
2023-02-11T10:44:03.286Z,46.20
2023-02-11T10:46:35.375Z,47.47
2023-02-11T10:49:04.010Z,47.84
2023-02-11T10:51:34.336Z,49.14
2023-02-11T10:54:19.743Z,49.44
2023-02-11T10:56:58.609Z,50.29
2023-02-11T10:59:29.368Z,49.96
2023-02-11T11:02:08.073Z,50.57
2023-02-11T11:04:41.004Z,51.38
2023-02-11T11:07:21.408Z,50.81
2023-02-11T11:09:55.580Z,50.15
2023-02-11T11:12:45.809Z,50.31
2023-02-11T11:15:23.193Z,48.75
2023-02-11T11:18:20.940Z,49.96
2023-02-11T11:20:59.354Z,50.04
2023-02-11T11:23:30.043Z,50.11
2023-02-11T11:26:13.749Z,50.34
2023-02-11T11:28:59.135Z,50.12
2023-02-11T11:31:32.785Z,51.24
2023-02-11T11:34:14.951Z,50.98
2023-02-11T11:36:44.252Z,50.84
2023-02-11T11:39:33.910Z,49.23
2023-02-11T11:42:08.255Z,48.58
2023-02-11T11:44:39.921Z,45.95
2023-02-11T11:47:29.811Z,44.71
2023-02-11T11:50:29.112Z,44.72
2023-02-11T11:53:00.330Z,43.22
2023-02-11T11:55:35.047Z,42.60
2023-02-11T11:58:04.865Z,42.44
2023-02-11T12:01:06.597Z,43.45
2023-02-11T12:03:37.255Z,43.25
2023-02-11T12:06:39.246Z,42.99
2023-02-11T12:09:27.056Z,42.84
2023-02-11T12:12:41.674Z,42.70
2023-02-11T12:15:54.926Z,43.00
2023-02-11T12:18:45.499Z,43.90
2023-02-11T12:21:29.701Z,44.54
2023-02-11T12:24:17.484Z,44.88
2023-02-11T12:26:56.633Z,45.14
2023-02-11T12:29:24.698Z,44.99
2023-02-11T12:32:14.197Z,46.00
2023-02-11T12:35:13.274Z,45.94
2023-02-11T12:38:05.436Z,45.90
2023-02-11T12:41:02.927Z,45.90
2023-02-11T12:43:41.168Z,46.43
2023-02-11T12:46:16.030Z,46.37
2023-02-11T12:48:46.996Z,47.74
2023-02-11T12:51:27.563Z,48.00
2023-02-11T12:54:11.078Z,48.41
2023-02-11T12:56:51.129Z,48.41
2023-02-11T12:59:57.847Z,48.69
2023-02-11T13:02:56.787Z,48.38
2023-02-11T13:05:27.712Z,49.17
2023-02-11T13:08:06.034Z,48.43
2023-02-11T13:10:37.423Z,48.69
2023-02-11T13:13:21.274Z,48.65
2023-02-11T13:15:55.334Z,48.66
2023-02-11T13:18:32.558Z,48.79
2023-02-11T13:21:16.254Z,48.33
2023-02-11T13:23:44.093Z,48.47
2023-02-11T13:26:32.807Z,48.37
2023-02-11T13:29:16.106Z,48.45
2023-02-11T13:31:56.913Z,48.43
2023-02-11T13:34:43.406Z,48.48
2023-02-11T13:37:21.476Z,48.36
2023-02-11T13:40:01.364Z,48.58
2023-02-11T13:42:31.663Z,48.84
2023-02-11T13:45:01.054Z,49.60
2023-02-11T13:47:33.348Z,49.61
2023-02-11T13:50:05.739Z,49.51
2023-02-11T13:52:39.077Z,49.24
2023-02-11T13:55:22.691Z,49.30
2023-02-11T13:58:02.740Z,49.31
2023-02-11T14:00:33.940Z,49.28
2023-02-11T14:03:29.853Z,48.56
2023-02-11T14:06:30.712Z,48.12
2023-02-11T14:09:11.569Z,48.22
2023-02-11T14:11:45.738Z,48.92
2023-02-11T14:14:33.918Z,48.88
2023-02-11T14:17:08.176Z,49.09
2023-02-11T14:19:47.825Z,49.40
2023-02-11T14:22:18.911Z,50.02
2023-02-11T14:25:20.409Z,50.04
2023-02-11T14:27:51.534Z,50.27
2023-02-11T14:30:39.569Z,50.43
2023-02-11T14:33:35.088Z,51.33
2023-02-11T14:36:23.342Z,51.65
2023-02-11T14:39:14.088Z,51.76
2023-02-11T14:41:44.597Z,52.39
2023-02-11T14:44:23.498Z,52.73
2023-02-11T14:46:55.604Z,52.98
2023-02-11T14:49:35.284Z,53.25
2023-02-11T14:52:37.453Z,53.22
2023-02-11T14:55:11.331Z,53.58
2023-02-11T14:57:39.412Z,53.80
2023-02-11T15:00:19.754Z,54.33
2023-02-11T15:02:48.530Z,55.58
2023-02-11T15:05:29.069Z,56.13
2023-02-11T15:08:02.025Z,56.02
2023-02-11T15:10:37.843Z,56.10
2023-02-11T15:13:06.141Z,56.24
2023-02-11T15:15:36.638Z,56.42
2023-02-11T15:18:05.748Z,56.56
2023-02-11T15:20:36.034Z,56.51
2023-02-11T15:23:09.386Z,56.59
2023-02-11T15:25:44.415Z,57.75
2023-02-11T15:28:31.453Z,58.24
2023-02-11T15:31:06.748Z,57.89
2023-02-11T15:33:34.952Z,58.88
2023-02-11T15:36:03.959Z,60.13
2023-02-11T15:38:32.320Z,60.79
2023-02-11T15:41:03.391Z,61.18
2023-02-11T15:44:04.383Z,60.96
2023-02-11T15:46:38.716Z,61.65
2023-02-11T15:49:08.637Z,61.29
2023-02-11T15:51:40.007Z,61.61
2023-02-11T15:54:18.058Z,62.28
2023-02-11T15:56:50.871Z,63.28
2023-02-11T15:59:38.397Z,62.71
2023-02-11T16:02:16.102Z,62.93
2023-02-11T16:05:00.014Z,63.02
2023-02-11T16:07:57.453Z,63.61
2023-02-11T16:10:30.736Z,63.85
2023-02-11T16:13:20.008Z,63.53
2023-02-11T16:15:51.110Z,64.90
2023-02-11T16:18:37.723Z,64.36
2023-02-11T16:21:16.283Z,64.11
2023-02-11T16:23:51.585Z,64.55
2023-02-11T16:26:26.508Z,65.56
2023-02-11T16:29:13.289Z,65.45
2023-02-11T16:31:44.841Z,65.69
2023-02-11T16:34:21.193Z,66.80
2023-02-11T16:36:50.844Z,66.28
2023-02-11T16:39:23.699Z,67.04
2023-02-11T16:41:52.594Z,66.77
2023-02-11T16:44:20.642Z,66.75
2023-02-11T16:46:48.843Z,67.52
2023-02-11T16:49:24.124Z,67.54
2023-02-11T16:51:56.949Z,67.56
2023-02-11T16:54:25.277Z,67.41
2023-02-11T16:56:53.549Z,67.16
2023-02-11T16:59:21.926Z,67.22
2023-02-11T17:01:52.136Z,67.48
2023-02-11T17:04:25.041Z,68.32
2023-02-11T17:06:53.133Z,67.60
2023-02-11T17:09:24.552Z,68.82
2023-02-11T17:11:52.865Z,67.87
2023-02-11T17:14:21.017Z,67.00
2023-02-11T17:16:49.250Z,67.50
2023-02-11T17:19:22.362Z,67.84
2023-02-11T17:21:52.780Z,67.81
2023-02-11T17:24:21.988Z,67.13
2023-02-11T17:26:50.760Z,67.13
2023-02-11T17:29:24.544Z,67.30
2023-02-11T17:31:53.289Z,67.86
2023-02-11T17:34:23.040Z,67.83
2023-02-11T17:36:51.859Z,67.04
2023-02-11T17:39:21.171Z,66.63
2023-02-11T17:41:49.498Z,66.47
2023-02-11T17:44:17.673Z,65.82
2023-02-11T17:46:45.757Z,65.53
2023-02-11T17:49:13.809Z,65.79
2023-02-11T17:51:42.064Z,65.68
2023-02-11T17:54:17.336Z,65.53
2023-02-11T17:56:46.853Z,65.34
2023-02-11T17:59:14.981Z,64.88
2023-02-11T18:01:43.481Z,64.57
2023-02-11T18:04:18.399Z,64.23
2023-02-11T18:06:46.553Z,64.18
2023-02-11T18:09:14.789Z,64.26
2023-02-11T18:11:42.878Z,64.08
2023-02-11T18:14:11.289Z,64.06
2023-02-11T18:16:43.185Z,64.43
2023-02-11T18:19:12.615Z,64.58
2023-02-11T18:21:40.779Z,64.81
2023-02-11T18:24:09.062Z,65.24
2023-02-11T18:26:37.360Z,64.81
2023-02-11T18:29:07.111Z,64.68
2023-02-11T18:31:35.516Z,64.33
2023-02-11T18:34:07.619Z,64.53
2023-02-11T18:36:36.307Z,64.25
2023-02-11T18:39:05.951Z,63.93
2023-02-11T18:41:34.094Z,63.65
2023-02-11T18:44:03.392Z,63.64
2023-02-11T18:46:31.766Z,63.40
2023-02-11T18:48:59.942Z,63.41
2023-02-11T18:51:28.485Z,63.53
2023-02-11T18:53:56.588Z,63.99
2023-02-11T18:56:27.865Z,63.95
2023-02-11T18:58:57.298Z,63.72
2023-02-11T19:01:27.594Z,63.65
2023-02-11T19:03:58.344Z,63.70
2023-02-11T19:06:29.099Z,63.69
2023-02-11T19:09:00.292Z,63.43
2023-02-11T19:11:50.057Z,63.82
2023-02-11T19:14:20.078Z,63.68
2023-02-11T19:16:50.743Z,63.92
2023-02-11T19:19:20.107Z,63.94
2023-02-11T19:21:48.947Z,63.71
2023-02-11T19:24:21.436Z,63.90
2023-02-11T19:26:51.804Z,64.47
2023-02-11T19:29:19.865Z,64.12
2023-02-11T19:31:48.390Z,64.08
2023-02-11T19:34:19.987Z,64.22
2023-02-11T19:36:49.935Z,63.95
2023-02-11T19:39:18.568Z,64.01
2023-02-11T19:41:46.782Z,64.27
2023-02-11T19:44:15.009Z,64.46
2023-02-11T19:46:43.199Z,64.52
2023-02-11T19:49:16.517Z,64.51
2023-02-11T19:51:44.861Z,64.52
2023-02-11T19:54:13.182Z,64.89
2023-02-11T19:56:41.515Z,64.57
2023-02-11T19:59:09.727Z,64.24
2023-02-11T20:01:37.859Z,64.00
2023-02-11T20:04:06.253Z,64.06
2023-02-11T20:06:35.474Z,64.18
2023-02-11T20:09:10.129Z,64.19
2023-02-11T20:11:39.014Z,63.74
2023-02-11T20:14:07.560Z,63.83
2023-02-11T20:16:47.660Z,63.69
2023-02-11T20:19:20.049Z,63.59
2023-02-11T20:21:51.169Z,63.77
2023-02-11T20:24:20.543Z,63.59
2023-02-11T20:26:49.603Z,63.75
2023-02-11T20:29:18.143Z,63.74
2023-02-11T20:31:46.734Z,63.55
2023-02-11T20:34:17.688Z,63.93
2023-02-11T20:36:52.089Z,63.92
2023-02-11T20:39:22.523Z,63.28
2023-02-11T20:41:51.818Z,62.86
2023-02-11T20:44:23.964Z,63.59
2023-02-11T20:46:54.633Z,63.30
2023-02-11T20:49:24.410Z,63.23
2023-02-11T20:51:54.107Z,63.04
2023-02-11T20:54:23.831Z,63.39
2023-02-11T20:56:55.553Z,63.36
2023-02-11T20:59:24.501Z,62.35
2023-02-11T21:01:55.780Z,62.63
2023-02-11T21:04:29.692Z,62.27
2023-02-11T21:07:01.704Z,62.31
2023-02-11T21:09:33.362Z,62.34
2023-02-11T21:12:02.455Z,62.52
2023-02-11T21:14:30.718Z,62.43
2023-02-11T21:16:59.043Z,62.44
2023-02-11T21:19:27.300Z,62.26
2023-02-11T21:21:57.349Z,62.43
2023-02-11T21:24:25.700Z,62.40
2023-02-11T21:26:54.806Z,62.45
2023-02-11T21:29:22.921Z,62.47
2023-02-11T21:31:51.507Z,62.47
2023-02-11T21:34:20.248Z,62.52
2023-02-11T21:36:51.310Z,62.46
2023-02-11T21:39:20.479Z,62.31
2023-02-11T21:41:48.574Z,62.07
2023-02-11T21:44:16.600Z,62.27
2023-02-11T21:46:44.871Z,62.61
2023-02-11T21:49:13.111Z,62.56
2023-02-11T21:51:41.253Z,62.68
2023-02-11T21:54:11.681Z,62.58
2023-02-11T21:56:40.712Z,62.49
2023-02-11T21:59:13.993Z,62.41
2023-02-11T22:01:42.092Z,62.58
2023-02-11T22:04:10.202Z,62.65
2023-02-11T22:06:38.707Z,62.87
2023-02-11T22:09:09.038Z,63.14
2023-02-11T22:11:37.453Z,63.20
2023-02-11T22:14:05.517Z,63.15
2023-02-11T22:16:33.803Z,63.25
2023-02-11T22:19:07.216Z,63.44
2023-02-11T22:21:35.154Z,63.41
2023-02-11T22:24:03.404Z,63.45
2023-02-11T22:26:31.533Z,63.42
2023-02-11T22:28:59.570Z,63.96
2023-02-11T22:31:30.850Z,65.24
2023-02-11T22:34:00.489Z,66.85
2023-02-11T22:36:31.497Z,68.53
2023-02-11T22:39:08.908Z,69.29
2023-02-11T22:41:40.599Z,71.15
2023-02-11T22:44:09.748Z,72.57
2023-02-11T22:46:38.698Z,72.94
2023-02-11T22:49:07.490Z,73.07
2023-02-11T22:51:35.893Z,73.68
2023-02-11T22:54:06.891Z,72.74
2023-02-11T22:56:35.333Z,71.73
2023-02-11T22:59:07.604Z,71.87
2023-02-11T23:01:36.148Z,71.21
2023-02-11T23:04:06.434Z,70.93
2023-02-11T23:06:34.968Z,70.70
2023-02-11T23:09:08.505Z,70.65
2023-02-11T23:11:36.527Z,70.33
2023-02-11T23:14:05.445Z,69.95
2023-02-11T23:16:34.989Z,69.67
2023-02-11T23:19:07.622Z,69.53
2023-02-11T23:21:38.614Z,69.07
2023-02-11T23:24:10.965Z,68.89
2023-02-11T23:26:40.670Z,68.84
2023-02-11T23:29:09.354Z,68.64
2023-02-11T23:31:40.499Z,68.37
2023-02-11T23:34:09.403Z,68.14
2023-02-11T23:36:37.988Z,67.41
2023-02-11T23:39:06.433Z,67.18
2023-02-11T23:41:34.905Z,67.17
2023-02-11T23:44:02.921Z,67.02
2023-02-11T23:46:30.927Z,67.22
2023-02-11T23:48:59.125Z,67.07
2023-02-11T23:51:27.185Z,67.20
2023-02-11T23:53:56.319Z,67.31
2023-02-11T23:56:27.740Z,67.23
2023-02-11T23:58:58.725Z,67.19
